Time;durP1;ratioP1;P1;durP2;ratioP2;P2;SDS_P1;SDS_P2;PMS_P1;PMS_P2;Temp;Humidity;BMP_temperature;BMP_pressure;BME280_temperature;BME280_humidity;BME280_pressure;Samples;Min_cycle;Max_cycle;Signal;HPM_P1;HPM_P2
2023/06/30 00:00:15;;;;;;;2.60;1.10;;;14.00;99.90;;;;;;4883099;29;20055;-73
2023/06/30 00:02:42;;;;;;;2.60;0.98;;;14.00;99.90;;;;;;4898684;29;20385;-74
2023/06/30 00:05:08;;;;;;;2.53;0.90;;;14.00;99.90;;;;;;4883099;29;20044;-73
2023/06/30 00:07:34;;;;;;;2.08;1.30;;;13.90;99.90;;;;;;4855559;29;20048;-74
2023/06/30 00:09:59;;;;;;;3.03;1.15;;;13.90;99.90;;;;;;4895426;29;20039;-73
2023/06/30 00:12:25;;;;;;;2.88;1.00;;;13.90;99.90;;;;;;4893276;29;20076;-73
2023/06/30 00:14:50;;;;;;;2.28;0.88;;;13.80;99.90;;;;;;4888336;29;20452;-73
2023/06/30 00:17:16;;;;;;;3.40;0.90;;;13.80;99.90;;;;;;4879360;29;20052;-73
2023/06/30 00:19:42;;;;;;;1.77;0.90;;;13.70;99.90;;;;;;4868679;29;20055;-73
2023/06/30 00:22:08;;;;;;;3.90;1.20;;;13.70;99.90;;;;;;4896628;29;20180;-73
2023/06/30 00:24:34;;;;;;;2.13;1.00;;;13.70;99.90;;;;;;4895097;29;20495;-73
2023/06/30 00:27:00;;;;;;;1.48;0.95;;;13.60;99.90;;;;;;4894954;29;20154;-73
2023/06/30 00:29:26;;;;;;;3.30;1.10;;;13.60;99.90;;;;;;4895315;29;20115;-73
2023/06/30 00:31:51;;;;;;;2.80;0.90;;;13.60;99.90;;;;;;4895406;29;20055;-73
2023/06/30 00:34:17;;;;;;;2.03;0.82;;;13.50;99.90;;;;;;4895348;29;20106;-73
2023/06/30 00:36:43;;;;;;;2.97;1.30;;;13.60;99.90;;;;;;4893142;29;20040;-73
2023/06/30 00:39:08;;;;;;;4.05;1.33;;;13.60;99.90;;;;;;4887934;29;20472;-73
2023/06/30 00:41:34;;;;;;;2.42;1.17;;;13.50;99.90;;;;;;4893565;29;20075;-74
2023/06/30 00:44:01;;;;;;;2.72;0.80;;;13.50;99.90;;;;;;4865943;29;20040;-73
2023/06/30 00:46:28;;;;;;;3.45;1.30;;;13.50;99.90;;;;;;4877623;29;20048;-73
2023/06/30 00:48:53;;;;;;;1.58;0.90;;;13.50;99.90;;;;;;4895912;29;20126;-73
2023/06/30 00:51:19;;;;;;;2.90;1.08;;;13.60;99.90;;;;;;4880933;29;20074;-73
2023/06/30 00:53:45;;;;;;;3.08;1.00;;;13.50;99.90;;;;;;4894194;29;20527;-73
2023/06/30 00:56:11;;;;;;;;;;;13.50;99.90;;;;;;4870824;29;20067;-73
2023/06/30 00:58:37;;;;;;;3.08;1.23;;;13.50;99.90;;;;;;4880568;29;19919;-73
2023/06/30 01:01:31;;;;;;;3.67;1.60;;;13.40;99.90;;;;;;4881291;29;20055;-73
2023/06/30 01:04:16;;;;;;;3.22;1.23;;;13.40;99.90;;;;;;4894856;29;20044;-73
2023/06/30 01:07:00;;;;;;;1.63;0.88;;;13.40;99.90;;;;;;4888461;29;20048;-73
2023/06/30 01:09:31;;;;;;;3.90;1.42;;;13.40;99.90;;;;;;4868382;29;20062;-73
2023/06/30 01:11:58;;;;;;;2.10;1.08;;;13.30;99.90;;;;;;4895901;29;20167;-73
2023/06/30 01:14:26;;;;;;;3.53;1.30;;;13.30;99.90;;;;;;4874739;29;20059;-74
2023/06/30 01:16:53;;;;;;;1.83;1.13;;;13.30;99.90;;;;;;4892816;29;20057;-73
2023/06/30 01:19:49;;;;;;;2.92;1.20;;;13.30;99.90;;;;;;4895345;29;20052;-73
2023/06/30 01:22:24;;;;;;;2.95;1.35;;;13.30;99.90;;;;;;4879556;29;20128;-73
2023/06/30 01:24:55;;;;;;;2.88;1.13;;;13.20;99.90;;;;;;4880675;29;20044;-73
2023/06/30 01:27:21;;;;;;;1.70;0.80;;;13.20;99.90;;;;;;4893606;29;20056;-73
2023/06/30 01:29:48;;;;;;;2.70;1.10;;;13.20;99.90;;;;;;4896120;29;20040;-73
2023/06/30 01:32:16;;;;;;;3.30;1.20;;;13.20;99.90;;;;;;4897641;29;20461;-73
2023/06/30 01:34:44;;;;;;;1.60;0.80;;;13.20;99.90;;;;;;4881185;29;20044;-73
2023/06/30 01:37:10;;;;;;;2.35;0.90;;;13.20;99.90;;;;;;4886090;29;20063;-73
2023/06/30 01:39:36;;;;;;;1.50;0.80;;;13.10;99.90;;;;;;4894567;29;20051;-73
2023/06/30 01:42:02;;;;;;;3.58;1.17;;;13.10;99.90;;;;;;4878484;29;20176;-73
2023/06/30 01:44:28;;;;;;;3.00;0.95;;;13.10;99.90;;;;;;4881652;29;20052;-73
2023/06/30 01:46:54;;;;;;;3.20;1.20;;;13.10;99.90;;;;;;4885805;29;20045;-73
2023/06/30 01:49:19;;;;;;;5.63;1.58;;;13.10;99.90;;;;;;4879139;29;20493;-73
2023/06/30 01:51:45;;;;;;;2.33;1.13;;;13.20;99.90;;;;;;4896943;29;20064;-73
2023/06/30 01:54:11;;;;;;;1.48;0.82;;;13.10;99.90;;;;;;4896877;29;20099;-73
2023/06/30 01:56:36;;;;;;;1.77;0.93;;;13.10;99.90;;;;;;4887268;29;20059;-73
2023/06/30 01:59:02;;;;;;;3.05;1.20;;;13.10;99.90;;;;;;4866221;29;20055;-74
2023/06/30 02:01:28;;;;;;;4.40;1.42;;;13.10;99.90;;;;;;4867953;29;20429;-74
2023/06/30 02:03:53;;;;;;;3.33;1.52;;;13.10;99.90;;;;;;4894418;29;20533;-74
2023/06/30 02:06:19;;;;;;;3.95;1.58;;;13.10;99.90;;;;;;4890522;29;20036;-74
2023/06/30 02:08:45;;;;;;;4.80;1.63;;;13.10;99.90;;;;;;4884636;29;20040;-73
2023/06/30 02:11:10;;;;;;;6.82;1.50;;;13.10;99.90;;;;;;4872702;29;20572;-74
2023/06/30 02:13:36;;;;;;;3.35;1.10;;;13.10;99.90;;;;;;4893210;29;20401;-74
2023/06/30 02:16:02;;;;;;;1.98;0.93;;;13.00;99.90;;;;;;4889148;29;20162;-74
2023/06/30 02:18:27;;;;;;;3.65;1.45;;;13.00;99.90;;;;;;4866741;29;20048;-74
2023/06/30 02:20:53;;;;;;;1.35;1.00;;;12.90;99.90;;;;;;4899788;29;20075;-73
2023/06/30 02:23:19;;;;;;;2.17;1.10;;;12.90;99.90;;;;;;4879362;29;20103;-74
2023/06/30 02:25:44;;;;;;;2.55;1.40;;;12.80;99.90;;;;;;4898344;29;20040;-74
2023/06/30 02:28:10;;;;;;;3.63;1.20;;;12.90;99.90;;;;;;4868965;29;20048;-74
2023/06/30 02:30:35;;;;;;;1.83;1.35;;;12.80;99.90;;;;;;4883252;29;20400;-73
2023/06/30 02:33:01;;;;;;;2.22;1.30;;;12.80;99.90;;;;;;4890569;29;20052;-73
2023/06/30 02:35:27;;;;;;;2.58;1.00;;;12.80;99.90;;;;;;4889173;29;20044;-73
2023/06/30 02:37:52;;;;;;;1.40;0.95;;;12.70;99.90;;;;;;4899606;29;20051;-73
2023/06/30 02:40:18;;;;;;;1.27;0.85;;;12.70;99.90;;;;;;4896786;29;20045;-73
2023/06/30 02:42:44;;;;;;;0.75;0.65;;;12.60;99.90;;;;;;4885917;29;20068;-73
2023/06/30 02:45:10;;;;;;;1.10;0.60;;;12.60;99.90;;;;;;4899573;29;20480;-73
2023/06/30 02:47:35;;;;;;;0.73;0.50;;;12.60;99.90;;;;;;4896288;29;20396;-74
2023/06/30 02:50:02;;;;;;;0.47;0.47;;;12.60;99.90;;;;;;4881456;29;20401;-73
2023/06/30 02:52:28;;;;;;;0.75;0.45;;;12.50;99.90;;;;;;4895739;29;20136;-74
2023/06/30 02:54:53;;;;;;;0.60;0.35;;;12.50;99.90;;;;;;4897364;29;20445;-74
2023/06/30 02:57:21;;;;;;;0.95;0.30;;;12.40;99.90;;;;;;4899524;29;20079;-74
2023/06/30 02:59:47;;;;;;;0.90;0.50;;;12.40;99.90;;;;;;4884815;29;20048;-74
2023/06/30 03:02:12;;;;;;;0.82;0.45;;;12.40;99.90;;;;;;4899449;29;20040;-74
2023/06/30 03:04:38;;;;;;;1.27;0.47;;;12.30;99.90;;;;;;4886714;29;20660;-73
2023/06/30 03:07:04;;;;;;;0.57;0.50;;;12.20;99.90;;;;;;4896804;29;20113;-73
2023/06/30 03:09:29;;;;;;;0.38;0.30;;;12.20;99.90;;;;;;4884555;29;20104;-73
2023/06/30 03:11:55;;;;;;;0.30;0.30;;;12.20;99.90;;;;;;4899544;29;20504;-74
2023/06/30 03:14:21;;;;;;;1.02;0.60;;;12.10;99.90;;;;;;4882055;29;20048;-74
2023/06/30 03:16:46;;;;;;;0.43;0.30;;;12.20;99.90;;;;;;4899242;29;20126;-73
2023/06/30 03:19:12;;;;;;;0.88;0.50;;;12.20;99.90;;;;;;4867843;29;20055;-74
2023/06/30 03:21:38;;;;;;;1.23;0.60;;;12.10;99.90;;;;;;4884041;29;20540;-74
2023/06/30 03:24:03;;;;;;;1.27;0.50;;;12.10;99.90;;;;;;4891727;29;20186;-73
2023/06/30 03:26:29;;;;;;;0.90;0.60;;;12.00;99.90;;;;;;4880536;29;20066;-74
2023/06/30 03:28:55;;;;;;;0.38;0.38;;;12.00;99.90;;;;;;4898191;29;20410;-74
2023/06/30 03:31:20;;;;;;;0.80;0.50;;;12.00;99.90;;;;;;4894804;29;20393;-73
2023/06/30 03:33:46;;;;;;;0.50;0.40;;;12.00;99.90;;;;;;4870455;29;20057;-73
2023/06/30 03:36:12;;;;;;;0.70;0.40;;;11.90;99.90;;;;;;4893324;29;20052;-73
2023/06/30 03:38:38;;;;;;;0.82;0.40;;;12.00;99.90;;;;;;4897988;29;20048;-74
2023/06/30 03:41:03;;;;;;;1.23;0.50;;;11.90;99.90;;;;;;4883056;29;20052;-74
2023/06/30 03:43:29;;;;;;;0.70;0.40;;;11.90;99.90;;;;;;4883158;29;20051;-73
2023/06/30 03:45:55;;;;;;;0.52;0.30;;;11.90;99.90;;;;;;4879397;29;20522;-74
2023/06/30 03:48:21;;;;;;;0.65;0.50;;;11.90;99.90;;;;;;4881110;29;20138;-74
2023/06/30 03:50:51;;;;;;;1.05;0.60;;;11.90;99.90;;;;;;4880998;29;20284;-74
2023/06/30 03:53:17;;;;;;;1.02;0.40;;;11.90;99.90;;;;;;4896690;29;20060;-74
2023/06/30 03:55:43;;;;;;;0.45;0.40;;;11.90;99.90;;;;;;4879880;29;20054;-73
2023/06/30 03:58:08;;;;;;;0.60;0.40;;;12.00;99.90;;;;;;4897113;29;20052;-73
2023/06/30 04:00:34;;;;;;;0.30;0.30;;;12.00;99.90;;;;;;4893853;29;20399;-72
2023/06/30 04:03:00;;;;;;;0.45;0.43;;;12.00;99.90;;;;;;4897935;29;20075;-72
2023/06/30 04:05:26;;;;;;;0.95;0.60;;;12.00;99.90;;;;;;4862734;29;20060;-75
2023/06/30 04:07:51;;;;;;;0.75;0.50;;;12.00;99.90;;;;;;4892532;29;20052;-75
2023/06/30 04:10:17;;;;;;;0.63;0.38;;;12.10;99.90;;;;;;4885577;29;20494;-75
2023/06/30 04:12:43;;;;;;;1.00;0.35;;;12.10;99.90;;;;;;4896914;29;20036;-72
2023/06/30 04:15:10;;;;;;;0.70;0.30;;;12.10;99.90;;;;;;4893326;29;20040;-72
2023/06/30 04:17:37;;;;;;;1.27;0.47;;;12.20;99.90;;;;;;4895886;29;20059;-72
2023/06/30 04:20:06;;;;;;;0.65;0.30;;;12.30;99.90;;;;;;4879966;29;20060;-72
2023/06/30 04:22:32;;;;;;;0.55;0.50;;;12.30;99.90;;;;;;4882610;29;20415;-72
2023/06/30 04:24:59;;;;;;;0.45;0.30;;;12.30;99.90;;;;;;4894491;29;20032;-75
2023/06/30 04:27:24;;;;;;;0.65;0.30;;;12.30;99.90;;;;;;4871784;29;20046;-73
2023/06/30 04:29:50;;;;;;;1.00;0.45;;;12.30;99.90;;;;;;4883815;29;20045;-74
2023/06/30 04:32:16;;;;;;;0.90;0.40;;;12.40;99.90;;;;;;4890314;29;20096;-72
2023/06/30 04:34:41;;;;;;;0.70;0.50;;;12.40;99.90;;;;;;4881409;29;20051;-75
2023/06/30 04:37:08;;;;;;;0.82;0.60;;;12.50;99.90;;;;;;4874583;29;20050;-75
2023/06/30 04:39:34;;;;;;;1.05;0.60;;;12.60;99.90;;;;;;4881977;29;20056;-73
2023/06/30 04:42:00;;;;;;;0.95;0.50;;;12.60;99.90;;;;;;4889111;29;20067;-73
2023/06/30 04:44:25;;;;;;;0.68;0.32;;;12.60;99.90;;;;;;4894082;29;20714;-73
2023/06/30 04:46:51;;;;;;;0.60;0.50;;;12.70;99.90;;;;;;4891703;29;20158;-73
2023/06/30 04:49:17;;;;;;;0.52;0.40;;;12.70;99.90;;;;;;4895136;29;20050;-73
2023/06/30 04:51:42;;;;;;;0.75;0.40;;;12.70;99.90;;;;;;4861636;29;20079;-73
2023/06/30 04:54:08;;;;;;;0.15;0.15;;;12.70;99.90;;;;;;4892543;29;20099;-73
2023/06/30 04:56:34;;;;;;;0.30;0.20;;;12.80;99.90;;;;;;4897417;29;20055;-73
2023/06/30 04:58:59;;;;;;;1.65;0.50;;;12.80;99.90;;;;;;4875110;29;20040;-73
2023/06/30 05:01:25;;;;;;;1.00;0.60;;;12.90;99.90;;;;;;4876744;29;20052;-73
2023/06/30 05:03:50;;;;;;;1.35;0.50;;;12.90;99.90;;;;;;4894428;29;20123;-74
2023/06/30 05:06:16;;;;;;;1.05;0.70;;;13.00;99.90;;;;;;4858350;29;20103;-74
2023/06/30 05:08:42;;;;;;;1.63;0.73;;;13.10;99.90;;;;;;4895227;29;20126;-74
2023/06/30 05:11:07;;;;;;;1.98;0.47;;;13.10;99.90;;;;;;4890114;29;20045;-73
2023/06/30 05:13:33;;;;;;;1.67;0.65;;;13.20;99.90;;;;;;4878642;29;20051;-74
2023/06/30 05:15:59;;;;;;;1.65;0.80;;;13.30;99.90;;;;;;4890056;29;20044;-73
2023/06/30 05:18:24;;;;;;;3.33;1.02;;;13.40;99.90;;;;;;4895208;29;20040;-73
2023/06/30 05:20:50;;;;;;;1.42;0.80;;;13.50;99.90;;;;;;4893310;29;20040;-73
2023/06/30 05:23:16;;;;;;;2.10;0.93;;;13.60;99.90;;;;;;4888808;29;20124;-73
2023/06/30 05:25:42;;;;;;;0.73;0.60;;;13.70;99.90;;;;;;4891022;29;20040;-73
2023/06/30 05:28:08;;;;;;;;;;;13.80;99.90;;;;;;4885201;29;20048;-73
2023/06/30 05:30:33;;;;;;;0.73;0.60;;;13.90;99.90;;;;;;4882418;29;19923;-73
2023/06/30 05:32:59;;;;;;;2.30;1.20;;;14.20;99.90;;;;;;4874006;29;20051;-73
2023/06/30 05:35:25;;;;;;;2.38;1.00;;;14.40;99.90;;;;;;4887293;29;20099;-73
2023/06/30 05:37:50;;;;;;;3.33;1.40;;;14.60;99.90;;;;;;4869835;29;20059;-73
2023/06/30 05:40:16;;;;;;;3.22;1.50;;;14.70;99.90;;;;;;4896677;29;20051;-73
2023/06/30 05:42:42;;;;;;;3.65;1.40;;;14.80;99.90;;;;;;4874521;29;20044;-73
2023/06/30 05:45:08;;;;;;;4.38;1.33;;;14.90;99.90;;;;;;4896967;29;20500;-73
2023/06/30 05:47:33;;;;;;;3.53;1.30;;;14.90;99.90;;;;;;4892529;29;20040;-73
2023/06/30 05:49:59;;;;;;;3.95;1.30;;;14.90;99.90;;;;;;4889456;29;20092;-73
2023/06/30 05:52:27;;;;;;;2.08;0.90;;;15.00;99.90;;;;;;4886147;29;20048;-73
2023/06/30 05:54:52;;;;;;;5.03;1.40;;;15.10;99.90;;;;;;4894936;29;20063;-73
2023/06/30 05:57:18;;;;;;;6.53;1.52;;;15.10;99.90;;;;;;4884437;29;20075;-74
2023/06/30 05:59:44;;;;;;;3.17;1.55;;;15.20;99.90;;;;;;4880488;29;20106;-74
2023/06/30 06:02:09;;;;;;;4.32;1.42;;;15.20;99.90;;;;;;4872010;29;20141;-72
2023/06/30 06:04:35;;;;;;;3.75;1.30;;;15.30;99.90;;;;;;4892418;29;20040;-73
2023/06/30 06:07:05;;;;;;;3.53;1.10;;;15.20;99.90;;;;;;4879676;29;20076;-73
2023/06/30 06:09:31;;;;;;;2.38;1.00;;;15.30;99.90;;;;;;4866380;29;20063;-74
2023/06/30 06:11:56;;;;;;;;;;;15.40;99.90;;;;;;4889445;29;20551;-73
2023/06/30 06:14:22;;;;;;;2.45;1.00;;;15.60;99.90;;;;;;4896448;29;19951;-73
2023/06/30 06:16:48;;;;;;;3.20;1.05;;;15.70;99.90;;;;;;4877190;29;20155;-74
2023/06/30 06:19:14;;;;;;;4.80;1.33;;;15.80;99.90;;;;;;4878200;29;20048;-74
2023/06/30 06:21:40;;;;;;;2.80;1.38;;;15.90;99.90;;;;;;4869677;29;20139;-74
2023/06/30 06:24:07;;;;;;;2.75;1.45;;;15.90;99.90;;;;;;4862618;29;20136;-74
2023/06/30 06:26:33;;;;;;;2.55;1.10;;;16.00;99.90;;;;;;4863174;29;20060;-74
2023/06/30 06:28:58;;;;;;;4.38;1.08;;;16.10;99.90;;;;;;4878090;29;20421;-73
2023/06/30 06:31:27;;;;;;;3.33;1.10;;;16.10;99.90;;;;;;4886910;29;20535;-74
2023/06/30 06:33:52;;;;;;;4.85;1.38;;;16.20;99.90;;;;;;4893198;29;20054;-73
2023/06/30 06:36:18;;;;;;;6.00;1.50;;;16.30;99.90;;;;;;4867678;29;20419;-74
2023/06/30 06:38:44;;;;;;;4.05;1.40;;;16.40;99.90;;;;;;4873171;29;20059;-74
2023/06/30 06:41:09;;;;;;;4.95;1.13;;;16.50;99.90;;;;;;4878602;29;20569;-75
2023/06/30 06:43:35;;;;;;;4.95;1.23;;;16.60;99.90;;;;;;4885949;29;20032;-75
2023/06/30 06:46:01;;;;;;;3.65;1.13;;;16.80;99.90;;;;;;4882514;29;20076;-74
2023/06/30 06:48:28;;;;;;;5.40;1.08;;;16.90;99.90;;;;;;4885657;29;20040;-74
2023/06/30 06:50:58;;;;;;;1.77;0.90;;;17.00;99.90;;;;;;4874208;29;20104;-74
2023/06/30 06:53:28;;;;;;;4.18;1.20;;;17.10;77.30;;;;;;4878955;29;20059;-75
2023/06/30 06:55:55;;;;;;;2.35;1.00;;;17.10;99.90;;;;;;4892908;29;20060;-74
2023/06/30 06:58:22;;;;;;;2.38;0.98;;;17.20;99.90;;;;;;4888335;29;20389;-74
2023/06/30 07:00:50;;;;;;;2.15;1.02;;;17.20;99.90;;;;;;4887276;29;20044;-74
2023/06/30 07:03:16;;;;;;;6.22;1.25;;;17.30;99.90;;;;;;4886698;29;20051;-74
2023/06/30 07:05:45;;;;;;;3.88;1.00;;;17.30;99.90;;;;;;4890918;29;20044;-74
2023/06/30 07:08:12;;;;;;;1.38;0.88;;;17.40;99.90;;;;;;4892991;29;20200;-74
2023/06/30 07:10:38;;;;;;;6.40;1.38;;;17.40;99.90;;;;;;4890280;29;20344;-74
2023/06/30 07:13:04;;;;;;;;;;;17.30;99.90;;;;;;4896434;29;20044;-74
2023/06/30 07:15:30;;;;;;;1.90;0.80;;;17.40;1.00;;;;;;4879006;29;19923;-75
2023/06/30 07:17:57;;;;;;;6.50;1.05;;;17.60;18.20;;;;;;4887261;29;20575;-74
2023/06/30 07:20:24;;;;;;;5.55;1.40;;;17.60;99.90;;;;;;4891730;29;20396;-73
2023/06/30 07:22:52;;;;;;;3.85;1.42;;;17.50;1.00;;;;;;4877613;29;20055;-73
2023/06/30 07:25:18;;;;;;;3.28;0.85;;;17.40;95.30;;;;;;4888494;29;20036;-73
2023/06/30 07:27:49;;;;;;;;;;;17.50;99.90;;;;;;4887787;29;20040;-73
2023/06/30 07:30:14;;;;;;;2.38;0.75;;;17.50;1.00;;;;;;4887401;29;19933;-76
2023/06/30 07:32:41;;;;;;;;;;;17.50;94.80;;;;;;4878344;29;20403;-76
2023/06/30 07:35:07;;;;;;;2.67;1.17;;;17.40;1.00;;;;;;4890044;29;20013;-73
2023/06/30 07:37:33;;;;;;;2.92;1.10;;;17.40;1.00;;;;;;4895630;29;20171;-73
2023/06/30 07:39:58;;;;;;;2.65;1.10;;;17.50;25.40;;;;;;4895003;29;20551;-72
2023/06/30 07:42:24;;;;;;;;;;;17.40;78.40;;;;;;4887557;29;20156;-72
2023/06/30 07:44:50;;;;;;;2.08;0.98;;;17.50;99.90;;;;;;4868126;29;19927;-72
2023/06/30 07:47:18;;;;;;;3.67;1.02;;;17.70;99.90;;;;;;4873786;29;20044;-73
2023/06/30 07:49:44;;;;;;;2.33;0.85;;;17.90;99.90;;;;;;4891829;29;20572;-72
2023/06/30 07:52:10;;;;;;;;;;;18.10;99.90;;;;;;4889898;29;20407;-73
2023/06/30 07:54:35;;;;;;;2.20;0.95;;;18.10;25.30;;;;;;4889943;29;19924;-72
2023/06/30 07:57:01;;;;;;;3.25;1.00;;;17.90;1.00;;;;;;4889494;29;20075;-73
2023/06/30 07:59:27;;;;;;;;;;;17.70;99.90;;;;;;4886979;29;20098;-73
2023/06/30 08:01:52;;;;;;;4.60;1.00;;;17.70;99.90;;;;;;4874123;29;19927;-73
2023/06/30 08:04:18;;;;;;;2.65;1.15;;;17.90;99.50;;;;;;4874979;29;20139;-73
2023/06/30 08:06:44;;;;;;;;;;;18.10;1.00;;;;;;4858352;29;20523;-73
2023/06/30 08:09:10;;;;;;;3.22;1.20;;;18.40;11.80;;;;;;4886574;29;19959;-77
2023/06/30 08:11:35;;;;;;;;;;;18.30;99.90;;;;;;4897668;29;20059;-73
2023/06/30 08:14:02;;;;;;;3.38;0.90;;;18.20;99.90;;;;;;4889643;29;19933;-73
2023/06/30 08:16:27;;;;;;;2.15;0.80;;;18.00;99.90;;;;;;4875845;29;20051;-73
2023/06/30 08:18:53;;;;;;;;;;;17.80;99.90;;;;;;4876319;29;20040;-73
2023/06/30 08:21:19;;;;;;;2.70;1.00;;;17.70;99.90;;;;;;4891065;29;20070;-73
2023/06/30 08:23:45;;;;;;;1.80;1.02;;;18.00;99.90;;;;;;4872896;29;20044;-72
2023/06/30 08:26:10;;;;;;;;;;;18.40;99.90;;;;;;4888195;29;20123;-73
2023/06/30 08:28:36;;;;;;;2.30;0.70;;;18.50;99.90;;;;;;4889567;29;19919;-73
2023/06/30 08:31:01;;;;;;;;;;;18.80;99.90;;;;;;4874183;29;20040;-72
2023/06/30 08:33:28;;;;;;;5.18;1.30;;;19.10;1.00;;;;;;4888333;29;19927;-73
2023/06/30 08:35:55;;;;;;;2.45;1.10;;;18.80;1.00;;;;;;4888013;29;20474;-73
2023/06/30 08:38:21;;;;;;;3.58;1.30;;;18.50;1.00;;;;;;4890458;29;20052;-73
2023/06/30 08:40:46;;;;;;;;;;;18.30;1.10;;;;;;4891261;29;20048;-72
2023/06/30 08:43:12;;;;;;;3.58;1.10;;;18.50;5.40;;;;;;4896684;29;19937;-72
2023/06/30 08:45:43;;;;;;;1.70;0.60;;;18.70;1.00;;;;;;4891185;29;20043;-73
2023/06/30 08:48:10;;;;;;;3.03;1.00;;;19.20;1.00;;;;;;4896528;29;20056;-72
2023/06/30 08:50:37;;;;;;;3.05;0.80;;;19.30;1.00;;;;;;4881413;29;20056;-72
2023/06/30 08:53:04;;;;;;;3.67;0.88;;;19.60;1.00;;;;;;4896714;29;20069;-73
2023/06/30 08:55:30;;;;;;;2.20;0.80;;;19.30;99.90;;;;;;4887706;29;20070;-73
2023/06/30 08:57:57;;;;;;;;;;;19.00;99.90;;;;;;4909911;29;20119;-72
2023/06/30 09:00:24;;;;;;;1.98;0.90;;;18.80;1.00;;;;;;4878325;29;19927;-74
2023/06/30 09:02:50;;;;;;;1.60;0.52;;;18.70;99.90;;;;;;4890738;29;20058;-72
2023/06/30 09:05:16;;;;;;;0.90;0.60;;;19.10;99.90;;;;;;4895450;29;20116;-73
2023/06/30 09:07:45;;;;;;;;;;;19.30;99.90;;;;;;4885350;29;20072;-73
2023/06/30 09:10:12;;;;;;;1.63;0.57;;;19.80;99.90;;;;;;4866341;29;19945;-73
2023/06/30 09:12:40;;;;;;;2.03;0.57;;;20.00;99.90;;;;;;4891640;29;20143;-72
2023/06/30 09:15:09;;;;;;;2.45;0.80;;;20.50;99.90;;;;;;4889470;29;20060;-72
2023/06/30 09:17:34;;;;;;;2.90;0.60;;;20.70;99.90;;;;;;4887894;29;20052;-72
2023/06/30 09:20:01;;;;;;;1.88;0.75;;;20.30;50.40;;;;;;4887726;29;20345;-72
2023/06/30 09:22:26;;;;;;;1.48;0.60;;;20.20;99.90;;;;;;4888352;29;20058;-72
2023/06/30 09:24:53;;;;;;;1.38;0.60;;;20.40;99.90;;;;;;4879439;29;20039;-74
2023/06/30 09:27:18;;;;;;;2.42;0.60;;;20.40;99.90;;;;;;4894174;29;20109;-75
2023/06/30 09:29:53;;;;;;;1.85;0.70;;;20.20;99.90;;;;;;4893047;29;20119;-75
2023/06/30 09:32:28;;;;;;;1.30;0.55;;;19.60;43.90;;;;;;4888679;29;20055;-78
2023/06/30 09:34:54;;;;;;;1.60;0.52;;;19.20;97.90;;;;;;4890284;29;20044;-75
2023/06/30 09:37:20;;;;;;;1.98;0.60;;;19.00;99.90;;;;;;4883767;29;20055;-73
2023/06/30 09:39:55;;;;;;;1.60;0.60;;;19.00;99.90;;;;;;4892915;29;20395;-75
2023/06/30 09:42:21;;;;;;;0.80;0.50;;;19.30;45.00;;;;;;4893751;29;20535;-76
2023/06/30 09:44:46;;;;;;;;;;;19.80;99.90;;;;;;4863511;29;20062;-75
2023/06/30 09:47:17;;;;;;;1.40;0.57;;;20.20;99.90;;;;;;4873429;29;20002;-75
2023/06/30 09:49:43;;;;;;;2.85;0.80;;;20.50;97.80;;;;;;4885918;29;20070;-75
2023/06/30 09:52:08;;;;;;;2.47;0.73;;;20.30;1.00;;;;;;4894646;29;20582;-75
2023/06/30 09:54:36;;;;;;;2.58;0.50;;;20.10;1.00;;;;;;4894491;29;20513;-74
2023/06/30 09:57:08;;;;;;;1.65;0.70;;;20.20;1.00;;;;;;4904231;29;20714;-75
2023/06/30 09:59:34;;;;;;;4.10;1.27;;;20.40;14.50;;;;;;4895225;29;20044;-77
2023/06/30 10:02:00;;;;;;;1.85;0.68;;;20.20;85.70;;;;;;4890026;29;20044;-77
2023/06/30 10:04:29;;;;;;;5.68;0.93;;;19.90;70.20;;;;;;4894028;29;20052;-76
2023/06/30 10:06:55;;;;;;;2.90;0.82;;;19.60;21.30;;;;;;4892095;29;20063;-76
2023/06/30 10:09:23;;;;;;;3.38;0.85;;;19.80;18.20;;;;;;4872850;29;20044;-76
2023/06/30 10:11:56;;;;;;;1.20;0.50;;;20.30;1.00;;;;;;4880108;29;20048;-75
2023/06/30 10:14:30;;;;;;;1.13;0.57;;;20.80;8.20;;;;;;4893464;29;20055;-77
2023/06/30 10:16:57;;;;;;;1.98;0.70;;;21.50;1.00;;;;;;4891526;29;20067;-76
2023/06/30 10:19:24;;;;;;;2.08;0.85;;;21.20;1.00;;;;;;4891956;29;20047;-76
2023/06/30 10:21:50;;;;;;;1.00;0.47;;;21.30;1.00;;;;;;4892757;29;20051;-77
2023/06/30 10:24:20;;;;;;;1.42;0.52;;;21.60;99.90;;;;;;4889941;29;20052;-76
2023/06/30 10:26:47;;;;;;;2.30;0.63;;;21.90;99.90;;;;;;4893132;29;20384;-76
2023/06/30 10:29:13;;;;;;;2.20;0.70;;;21.90;99.90;;;;;;4877381;29;20048;-75
2023/06/30 10:31:42;;;;;;;1.02;0.50;;;21.80;99.90;;;;;;4877348;29;20052;-73
2023/06/30 10:34:09;;;;;;;5.57;1.10;;;22.00;99.90;;;;;;4886810;29;20047;-72
2023/06/30 10:36:35;;;;;;;1.90;0.85;;;22.10;99.90;;;;;;4892522;29;20052;-73
2023/06/30 10:39:01;;;;;;;0.88;0.60;;;22.00;99.90;;;;;;4888980;29;20047;-73
2023/06/30 10:41:27;;;;;;;1.92;0.70;;;22.10;99.90;;;;;;4892994;29;20059;-73
2023/06/30 10:44:02;;;;;;;3.15;0.77;;;22.30;99.90;;;;;;4895141;29;20040;-72
2023/06/30 10:46:46;;;;;;;3.20;1.00;;;22.00;99.90;;;;;;4894110;29;20044;-73
2023/06/30 10:49:29;;;;;;;2.30;0.80;;;21.50;99.90;;;;;;4873823;29;20052;-72
2023/06/30 10:52:00;;;;;;;1.67;0.70;;;21.50;99.90;;;;;;4887864;29;20139;-72
2023/06/30 10:54:27;;;;;;;1.13;0.60;;;21.50;99.90;;;;;;4893519;29;20139;-73
2023/06/30 10:57:05;;;;;;;5.55;1.00;;;21.30;99.90;;;;;;4894373;29;20044;-73
2023/06/30 10:59:38;;;;;;;1.48;0.68;;;21.10;99.90;;;;;;4886405;29;20453;-73
2023/06/30 11:02:19;;;;;;;2.85;0.90;;;21.20;99.90;;;;;;4894234;29;20147;-73
2023/06/30 11:04:46;;;;;;;1.95;0.80;;;21.80;99.90;;;;;;4900188;29;20052;-73
2023/06/30 11:07:29;;;;;;;1.85;0.80;;;22.20;99.90;;;;;;4899908;29;20060;-75
2023/06/30 11:09:59;;;;;;;1.65;0.60;;;22.60;99.90;;;;;;4868552;29;20048;-74
2023/06/30 11:12:27;;;;;;;1.98;0.65;;;22.60;99.90;;;;;;4899865;29;20068;-73
2023/06/30 11:14:56;;;;;;;1.50;0.65;;;23.00;99.90;;;;;;4883673;29;20498;-73
2023/06/30 11:17:22;;;;;;;2.38;1.00;;;23.30;99.90;;;;;;4899728;29;20044;-74
2023/06/30 11:20:17;;;;;;;1.60;0.77;;;23.50;99.90;;;;;;4899788;29;20079;-73
2023/06/30 11:22:58;;;;;;;1.88;0.77;;;23.20;99.90;;;;;;4883660;29;20452;-73
2023/06/30 11:25:24;;;;;;;3.67;0.90;;;22.80;99.90;;;;;;4899693;29;20131;-73
2023/06/30 11:27:50;;;;;;;3.15;0.82;;;22.30;99.90;;;;;;4899090;29;20111;-73
2023/06/30 11:30:18;;;;;;;2.03;0.82;;;22.00;99.90;;;;;;4899114;29;20052;-74
2023/06/30 11:32:45;;;;;;;2.17;0.70;;;21.80;99.90;;;;;;4899484;29;20044;-73
2023/06/30 11:35:17;;;;;;;1.60;0.82;;;22.00;99.90;;;;;;4899301;29;20115;-74
2023/06/30 11:37:47;;;;;;;3.50;1.17;;;22.50;99.90;;;;;;4883715;29;20052;-73
2023/06/30 11:40:13;;;;;;;1.95;0.70;;;22.60;99.90;;;;;;4899242;29;20044;-74
2023/06/30 11:42:39;;;;;;;1.70;0.80;;;22.80;99.90;;;;;;4882846;29;20511;-73
2023/06/30 11:45:06;;;;;;;1.50;0.70;;;23.00;99.90;;;;;;4898672;29;20040;-74
2023/06/30 11:47:33;;;;;;;1.23;0.80;;;23.10;99.90;;;;;;4898553;29;20054;-74
2023/06/30 11:50:05;;;;;;;3.72;0.80;;;23.20;99.90;;;;;;4898569;29;20479;-73
2023/06/30 11:52:33;;;;;;;2.03;0.80;;;23.40;99.90;;;;;;4883633;29;20055;-73
2023/06/30 11:55:02;;;;;;;3.53;1.00;;;23.10;99.90;;;;;;4891917;29;20139;-73
2023/06/30 11:57:34;;;;;;;1.73;0.70;;;23.00;99.90;;;;;;4881235;29;20100;-73
2023/06/30 12:00:24;;;;;;;1.90;0.80;;;23.10;99.90;;;;;;4898788;29;20056;-73
2023/06/30 12:02:50;;;;;;;1.08;0.60;;;23.20;99.90;;;;;;4892404;29;20040;-74
2023/06/30 12:05:18;;;;;;;2.38;0.80;;;22.90;99.90;;;;;;4879120;29;20044;-73
2023/06/30 12:07:46;;;;;;;1.95;0.90;;;22.60;99.90;;;;;;4878385;29;20040;-75
2023/06/30 12:10:14;;;;;;;2.88;0.73;;;22.30;99.90;;;;;;4890540;29;20384;-74
2023/06/30 12:12:41;;;;;;;1.00;0.50;;;22.30;99.90;;;;;;4875839;29;20392;-74
2023/06/30 12:15:12;;;;;;;1.40;0.70;;;22.10;99.90;;;;;;4891149;29;20108;-74
2023/06/30 12:17:39;;;;;;;2.85;0.75;;;21.80;99.90;;;;;;4885626;29;20074;-74
2023/06/30 12:20:07;;;;;;;1.60;0.70;;;21.90;99.90;;;;;;4905976;29;20396;-74
2023/06/30 12:22:41;;;;;;;1.30;0.90;;;22.30;99.90;;;;;;4889091;29;20460;-74
2023/06/30 12:25:11;;;;;;;1.98;0.95;;;22.20;99.90;;;;;;4891932;29;20392;-74
2023/06/30 12:27:41;;;;;;;1.75;0.80;;;22.00;99.90;;;;;;4872620;29;20039;-74
2023/06/30 12:30:14;;;;;;;4.05;0.95;;;21.70;99.90;;;;;;4871637;29;20494;-75
2023/06/30 12:32:41;;;;;;;1.40;0.80;;;21.60;99.90;;;;;;4891370;29;20537;-75
2023/06/30 12:35:08;;;;;;;1.23;0.63;;;22.10;99.90;;;;;;4893829;29;20098;-75
2023/06/30 12:37:34;;;;;;;2.03;1.02;;;22.50;99.90;;;;;;4886075;29;20047;-73
2023/06/30 12:39:59;;;;;;;1.90;0.90;;;22.50;99.90;;;;;;4890471;29;20047;-74
2023/06/30 12:42:31;;;;;;;0.95;0.60;;;22.80;99.90;;;;;;4891540;29;20448;-74
2023/06/30 12:44:57;;;;;;;1.35;0.90;;;23.20;99.90;;;;;;4876227;29;20115;-74
2023/06/30 12:47:23;;;;;;;4.00;1.00;;;23.20;99.90;;;;;;4880517;29;20139;-76
2023/06/30 12:49:49;;;;;;;2.05;1.05;;;22.60;99.90;;;;;;4877620;29;20071;-74
2023/06/30 12:52:21;;;;;;;1.90;0.80;;;22.10;99.90;;;;;;4894603;29;20127;-74